sensor_id;sensor_type;location;lat;lon;timestamp;pressure;altitude;pressure_sealevel;temperature;humidity
57594;BME280;43423;46.510;6.686;2023-01-26T00:00:51;96791.59;;;0.55;73.23
57594;BME280;43423;46.510;6.686;2023-01-26T00:03:21;96787.16;;;0.38;73.87
57594;BME280;43423;46.510;6.686;2023-01-26T00:05:47;96784.81;;;0.40;73.76
57594;BME280;43423;46.510;6.686;2023-01-26T00:08:13;96782.91;;;0.37;73.77
57594;BME280;43423;46.510;6.686;2023-01-26T00:10:40;96780.63;;;0.35;73.58
57594;BME280;43423;46.510;6.686;2023-01-26T00:13:07;96783.59;;;0.44;73.50
57594;BME280;43423;46.510;6.686;2023-01-26T00:15:34;96775.59;;;0.34;72.79
57594;BME280;43423;46.510;6.686;2023-01-26T00:18:01;96779.41;;;0.40;74.10
57594;BME280;43423;46.510;6.686;2023-01-26T00:20:27;96767.69;;;0.50;73.90
57594;BME280;43423;46.510;6.686;2023-01-26T00:22:53;96770.75;;;0.52;73.14
57594;BME280;43423;46.510;6.686;2023-01-26T00:25:19;96766.78;;;0.64;73.62
57594;BME280;43423;46.510;6.686;2023-01-26T00:27:45;96770.75;;;0.52;72.78
57594;BME280;43423;46.510;6.686;2023-01-26T00:30:11;96764.94;;;0.53;73.32
57594;BME280;43423;46.510;6.686;2023-01-26T00:32:37;96762.38;;;0.43;72.93
57594;BME280;43423;46.510;6.686;2023-01-26T00:35:04;96754.97;;;0.47;72.87
57594;BME280;43423;46.510;6.686;2023-01-26T00:37:30;96748.47;;;0.41;72.57
57594;BME280;43423;46.510;6.686;2023-01-26T00:39:55;96739.28;;;0.31;72.81
57594;BME280;43423;46.510;6.686;2023-01-26T00:42:21;96748.09;;;0.39;72.78
57594;BME280;43423;46.510;6.686;2023-01-26T00:44:49;96740.81;;;0.36;73.47
57594;BME280;43423;46.510;6.686;2023-01-26T00:47:16;96749.00;;;0.28;73.33
57594;BME280;43423;46.510;6.686;2023-01-26T00:49:42;96747.03;;;0.33;73.07
57594;BME280;43423;46.510;6.686;2023-01-26T00:52:07;96743.94;;;0.31;72.70
57594;BME280;43423;46.510;6.686;2023-01-26T00:54:33;96736.66;;;0.27;73.21
57594;BME280;43423;46.510;6.686;2023-01-26T00:56:59;96729.25;;;0.32;73.21
57594;BME280;43423;46.510;6.686;2023-01-26T00:59:24;96734.66;;;0.32;73.07
57594;BME280;43423;46.510;6.686;2023-01-26T01:01:50;96723.06;;;0.31;73.77
57594;BME280;43423;46.510;6.686;2023-01-26T01:04:16;96727.72;;;0.31;72.89
57594;BME280;43423;46.510;6.686;2023-01-26T01:06:42;96725.47;;;0.25;73.14
57594;BME280;43423;46.510;6.686;2023-01-26T01:09:07;96718.19;;;0.19;73.72
57594;BME280;43423;46.510;6.686;2023-01-26T01:11:33;96719.03;;;0.12;73.58
57594;BME280;43423;46.510;6.686;2023-01-26T01:14:00;96717.19;;;0.06;74.03
57594;BME280;43423;46.510;6.686;2023-01-26T01:16:25;96705.66;;;0.02;73.92
57594;BME280;43423;46.510;6.686;2023-01-26T01:18:53;96720.28;;;0.04;74.21
57594;BME280;43423;46.510;6.686;2023-01-26T01:21:20;96717.16;;;0.09;73.91
57594;BME280;43423;46.510;6.686;2023-01-26T01:23:46;96713.22;;;0.14;73.86
57594;BME280;43423;46.510;6.686;2023-01-26T01:26:13;96721.31;;;0.17;73.72
57594;BME280;43423;46.510;6.686;2023-01-26T01:28:39;96718.88;;;0.26;73.63
57594;BME280;43423;46.510;6.686;2023-01-26T01:31:07;96717.91;;;0.10;73.34
57594;BME280;43423;46.510;6.686;2023-01-26T01:33:33;96701.78;;;-0.01;73.93
57594;BME280;43423;46.510;6.686;2023-01-26T01:36:02;96712.88;;;0.12;74.38
57594;BME280;43423;46.510;6.686;2023-01-26T01:38:28;96705.25;;;0.03;73.88
57594;BME280;43423;46.510;6.686;2023-01-26T01:40:55;96714.06;;;0.07;73.98
57594;BME280;43423;46.510;6.686;2023-01-26T01:43:21;96715.63;;;0.08;74.10
57594;BME280;43423;46.510;6.686;2023-01-26T01:45:48;96705.88;;;0.14;73.36
57594;BME280;43423;46.510;6.686;2023-01-26T01:48:21;96702.47;;;0.10;73.56
57594;BME280;43423;46.510;6.686;2023-01-26T01:50:51;96687.09;;;0.04;73.40
57594;BME280;43423;46.510;6.686;2023-01-26T01:53:23;96703.25;;;0.07;73.82
57594;BME280;43423;46.510;6.686;2023-01-26T01:55:55;96701.56;;;0.20;72.93
57594;BME280;43423;46.510;6.686;2023-01-26T01:58:21;96698.53;;;0.15;73.01
57594;BME280;43423;46.510;6.686;2023-01-26T02:00:47;96698.59;;;0.11;73.39
57594;BME280;43423;46.510;6.686;2023-01-26T02:03:13;96697.84;;;0.07;73.11
57594;BME280;43423;46.510;6.686;2023-01-26T02:05:47;96694.78;;;0.05;72.83
57594;BME280;43423;46.510;6.686;2023-01-26T02:08:16;96695.13;;;0.07;72.96
57594;BME280;43423;46.510;6.686;2023-01-26T02:10:45;96695.13;;;0.11;73.07
57594;BME280;43423;46.510;6.686;2023-01-26T02:13:11;96695.88;;;0.11;73.10
57594;BME280;43423;46.510;6.686;2023-01-26T02:15:37;96700.06;;;0.16;73.10
57594;BME280;43423;46.510;6.686;2023-01-26T02:18:04;96692.34;;;0.14;73.01
57594;BME280;43423;46.510;6.686;2023-01-26T02:20:42;96694.72;;;0.12;72.49
57594;BME280;43423;46.510;6.686;2023-01-26T02:28:18;96694.44;;;0.03;73.89
57594;BME280;43423;46.510;6.686;2023-01-26T02:30:45;96681.31;;;0.02;73.72
57594;BME280;43423;46.510;6.686;2023-01-26T02:33:38;96685.41;;;0.13;73.04
57594;BME280;43423;46.510;6.686;2023-01-26T02:36:05;96685.78;;;0.15;73.17
57594;BME280;43423;46.510;6.686;2023-01-26T02:38:42;96673.22;;;0.02;73.13
57594;BME280;43423;46.510;6.686;2023-01-26T02:41:13;96676.25;;;0.04;73.30
57594;BME280;43423;46.510;6.686;2023-01-26T02:44:02;96673.84;;;0.13;73.41
57594;BME280;43423;46.510;6.686;2023-01-26T02:46:28;96666.97;;;0.08;73.26
57594;BME280;43423;46.510;6.686;2023-01-26T02:48:54;96672.03;;;0.03;73.09
57594;BME280;43423;46.510;6.686;2023-01-26T02:51:39;96672.44;;;0.01;73.12
57594;BME280;43423;46.510;6.686;2023-01-26T02:54:04;96663.94;;;-0.01;73.85
57594;BME280;43423;46.510;6.686;2023-01-26T02:56:30;96669.66;;;0.08;73.10
57594;BME280;43423;46.510;6.686;2023-01-26T02:58:55;96669.59;;;0.12;73.33
57594;BME280;43423;46.510;6.686;2023-01-26T03:01:21;96651.50;;;0.09;72.80
57594;BME280;43423;46.510;6.686;2023-01-26T03:03:46;96664.16;;;0.15;73.41
57594;BME280;43423;46.510;6.686;2023-01-26T03:06:13;96667.53;;;0.23;73.09
57594;BME280;43423;46.510;6.686;2023-01-26T03:08:39;96669.13;;;0.20;72.63
57594;BME280;43423;46.510;6.686;2023-01-26T03:11:07;96661.50;;;0.12;72.92
57594;BME280;43423;46.510;6.686;2023-01-26T03:13:34;96656.78;;;0.16;72.99
57594;BME280;43423;46.510;6.686;2023-01-26T03:16:00;96652.13;;;0.20;73.36
57594;BME280;43423;46.510;6.686;2023-01-26T03:18:33;96643.56;;;-0.06;73.28
57594;BME280;43423;46.510;6.686;2023-01-26T03:21:17;96653.91;;;-0.01;73.73
57594;BME280;43423;46.510;6.686;2023-01-26T03:24:01;96643.16;;;-0.04;73.45
57594;BME280;43423;46.510;6.686;2023-01-26T03:26:45;96642.13;;;-0.17;73.46
57594;BME280;43423;46.510;6.686;2023-01-26T03:29:30;96641.97;;;-0.37;73.69
57594;BME280;43423;46.510;6.686;2023-01-26T03:31:56;96634.84;;;-0.24;73.71
57594;BME280;43423;46.510;6.686;2023-01-26T03:34:24;96639.91;;;-0.26;73.19
57594;BME280;43423;46.510;6.686;2023-01-26T03:36:50;96624.84;;;-0.23;73.27
57594;BME280;43423;46.510;6.686;2023-01-26T03:39:15;96625.78;;;-0.41;72.78
57594;BME280;43423;46.510;6.686;2023-01-26T03:42:00;96628.44;;;-0.37;73.39
57594;BME280;43423;46.510;6.686;2023-01-26T03:44:44;96629.84;;;-0.25;72.50
57594;BME280;43423;46.510;6.686;2023-01-26T03:47:30;96620.69;;;-0.32;73.05
57594;BME280;43423;46.510;6.686;2023-01-26T03:50:15;96631.03;;;-0.26;72.70
57594;BME280;43423;46.510;6.686;2023-01-26T03:52:59;96622.31;;;-0.41;72.32
57594;BME280;43423;46.510;6.686;2023-01-26T03:55:43;96636.16;;;-0.36;72.80
57594;BME280;43423;46.510;6.686;2023-01-26T03:58:28;96632.63;;;-0.29;72.65
57594;BME280;43423;46.510;6.686;2023-01-26T04:00:55;96621.34;;;-0.24;72.22
57594;BME280;43423;46.510;6.686;2023-01-26T04:03:21;96624.84;;;-0.23;71.85
57594;BME280;43423;46.510;6.686;2023-01-26T04:06:06;96619.72;;;-0.14;72.59
57594;BME280;43423;46.510;6.686;2023-01-26T04:08:50;96633.22;;;-0.14;71.82
57594;BME280;43423;46.510;6.686;2023-01-26T04:11:15;96620.88;;;-0.15;71.81
57594;BME280;43423;46.510;6.686;2023-01-26T04:13:41;96621.09;;;-0.03;71.87
57594;BME280;43423;46.510;6.686;2023-01-26T04:16:25;96623.09;;;-0.07;70.99
57594;BME280;43423;46.510;6.686;2023-01-26T04:19:09;96620.00;;;-0.05;71.19
57594;BME280;43423;46.510;6.686;2023-01-26T04:21:53;96618.19;;;-0.15;70.67
57594;BME280;43423;46.510;6.686;2023-01-26T04:24:19;96596.25;;;-0.24;71.38
57594;BME280;43423;46.510;6.686;2023-01-26T04:26:46;96608.66;;;-0.27;71.80
57594;BME280;43423;46.510;6.686;2023-01-26T04:29:14;96604.06;;;-0.30;71.61
57594;BME280;43423;46.510;6.686;2023-01-26T04:31:40;96600.06;;;-0.18;72.41
57594;BME280;43423;46.510;6.686;2023-01-26T04:34:10;96596.09;;;-0.10;71.38
57594;BME280;43423;46.510;6.686;2023-01-26T04:36:35;96592.13;;;-0.02;71.41
57594;BME280;43423;46.510;6.686;2023-01-26T04:39:01;96590.06;;;-0.21;71.24
57594;BME280;43423;46.510;6.686;2023-01-26T04:41:28;96588.63;;;-0.30;72.07
57594;BME280;43423;46.510;6.686;2023-01-26T04:43:54;96590.00;;;-0.52;71.78
57594;BME280;43423;46.510;6.686;2023-01-26T04:46:19;96588.41;;;-0.46;72.13
57594;BME280;43423;46.510;6.686;2023-01-26T04:48:45;96571.09;;;-0.52;72.83
57594;BME280;43423;46.510;6.686;2023-01-26T04:51:13;96579.13;;;-0.45;72.93
57594;BME280;43423;46.510;6.686;2023-01-26T04:53:39;96573.16;;;-0.63;72.80
57594;BME280;43423;46.510;6.686;2023-01-26T04:56:04;96573.19;;;-0.67;72.83
57594;BME280;43423;46.510;6.686;2023-01-26T04:58:31;96563.88;;;-0.62;73.90
57594;BME280;43423;46.510;6.686;2023-01-26T05:00:57;96553.19;;;-0.73;73.48
57594;BME280;43423;46.510;6.686;2023-01-26T05:03:24;96566.97;;;-0.64;73.34
57594;BME280;43423;46.510;6.686;2023-01-26T05:05:52;96560.09;;;-0.68;73.45
57594;BME280;43423;46.510;6.686;2023-01-26T05:08:20;96567.50;;;-0.79;74.37
57594;BME280;43423;46.510;6.686;2023-01-26T05:10:45;96568.31;;;-0.79;74.33
57594;BME280;43423;46.510;6.686;2023-01-26T05:13:12;96565.19;;;-0.77;74.01
57594;BME280;43423;46.510;6.686;2023-01-26T05:15:38;96567.44;;;-0.69;74.21
57594;BME280;43423;46.510;6.686;2023-01-26T05:18:04;96573.59;;;-0.68;74.17
57594;BME280;43423;46.510;6.686;2023-01-26T05:20:30;96577.41;;;-0.62;74.61
57594;BME280;43423;46.510;6.686;2023-01-26T05:22:56;96568.97;;;-0.71;73.63
57594;BME280;43423;46.510;6.686;2023-01-26T05:25:21;96574.84;;;-0.76;74.32
57594;BME280;43423;46.510;6.686;2023-01-26T05:27:47;96568.25;;;-0.75;73.81
57594;BME280;43423;46.510;6.686;2023-01-26T05:30:13;96565.16;;;-0.74;73.93
57594;BME280;43423;46.510;6.686;2023-01-26T05:32:39;96565.50;;;-0.72;74.04
57594;BME280;43423;46.510;6.686;2023-01-26T05:35:05;96569.78;;;-0.74;74.28
57594;BME280;43423;46.510;6.686;2023-01-26T05:37:32;96564.75;;;-0.72;73.96
57594;BME280;43423;46.510;6.686;2023-01-26T05:39:57;96559.81;;;-0.77;73.89
57594;BME280;43423;46.510;6.686;2023-01-26T05:42:24;96561.34;;;-0.76;73.77
57594;BME280;43423;46.510;6.686;2023-01-26T05:44:50;96558.88;;;-0.64;73.16
57594;BME280;43423;46.510;6.686;2023-01-26T05:47:16;96550.25;;;-0.86;73.19
57594;BME280;43423;46.510;6.686;2023-01-26T05:49:41;96549.13;;;-0.92;73.97
57594;BME280;43423;46.510;6.686;2023-01-26T05:52:08;96556.41;;;-0.89;73.91
57594;BME280;43423;46.510;6.686;2023-01-26T05:54:37;96551.84;;;-0.95;74.09
57594;BME280;43423;46.510;6.686;2023-01-26T05:57:03;96548.31;;;-0.89;73.85
57594;BME280;43423;46.510;6.686;2023-01-26T05:59:28;96544.78;;;-0.82;73.61
57594;BME280;43423;46.510;6.686;2023-01-26T06:01:57;96544.66;;;-0.71;73.54
57594;BME280;43423;46.510;6.686;2023-01-26T06:04:22;96549.47;;;-0.86;73.33
57594;BME280;43423;46.510;6.686;2023-01-26T06:06:51;96550.59;;;-0.83;73.84
57594;BME280;43423;46.510;6.686;2023-01-26T06:09:17;96528.34;;;-0.95;73.63
57594;BME280;43423;46.510;6.686;2023-01-26T06:11:42;96547.84;;;-0.76;73.49
57594;BME280;43423;46.510;6.686;2023-01-26T06:14:08;96554.72;;;-0.72;73.06
57594;BME280;43423;46.510;6.686;2023-01-26T06:16:33;96547.38;;;-0.71;73.59
57594;BME280;43423;46.510;6.686;2023-01-26T06:18:59;96550.81;;;-0.67;73.16
57594;BME280;43423;46.510;6.686;2023-01-26T06:21:24;96540.06;;;-0.71;72.91
57594;BME280;43423;46.510;6.686;2023-01-26T06:23:50;96552.00;;;-0.68;73.13
57594;BME280;43423;46.510;6.686;2023-01-26T06:26:15;96544.22;;;-0.63;72.81
57594;BME280;43423;46.510;6.686;2023-01-26T06:28:41;96543.91;;;-0.72;72.66
57594;BME280;43423;46.510;6.686;2023-01-26T06:31:07;96542.34;;;-0.69;73.33
57594;BME280;43423;46.510;6.686;2023-01-26T06:33:35;96542.31;;;-0.66;73.34
57594;BME280;43423;46.510;6.686;2023-01-26T06:36:08;96554.75;;;-0.75;73.14
57594;BME280;43423;46.510;6.686;2023-01-26T06:38:34;96547.41;;;-0.75;72.45
57594;BME280;43423;46.510;6.686;2023-01-26T06:41:05;96554.28;;;-0.67;74.05
57594;BME280;43423;46.510;6.686;2023-01-26T06:43:33;96548.44;;;-0.62;72.39
57594;BME280;43423;46.510;6.686;2023-01-26T06:45:59;96545.69;;;-0.58;72.48
57594;BME280;43423;46.510;6.686;2023-01-26T06:48:28;96553.81;;;-0.58;72.92
57594;BME280;43423;46.510;6.686;2023-01-26T06:54:00;96557.06;;;-0.74;72.70
57594;BME280;43423;46.510;6.686;2023-01-26T06:56:26;96562.84;;;-0.75;72.18
57594;BME280;43423;46.510;6.686;2023-01-26T06:58:53;96551.47;;;-0.94;72.67
57594;BME280;43423;46.510;6.686;2023-01-26T07:01:23;96551.53;;;-1.01;72.65
57594;BME280;43423;46.510;6.686;2023-01-26T07:03:53;96557.78;;;-1.11;73.39
57594;BME280;43423;46.510;6.686;2023-01-26T07:06:19;96569.38;;;-1.14;73.45
57594;BME280;43423;46.510;6.686;2023-01-26T07:08:45;96571.34;;;-1.18;73.30
57594;BME280;43423;46.510;6.686;2023-01-26T07:11:11;96558.19;;;-1.13;73.71
57594;BME280;43423;46.510;6.686;2023-01-26T07:13:38;96553.78;;;-0.96;73.49
57594;BME280;43423;46.510;6.686;2023-01-26T07:16:06;96556.03;;;-0.87;73.44
57594;BME280;43423;46.510;6.686;2023-01-26T07:18:32;96547.50;;;-0.82;73.26
57594;BME280;43423;46.510;6.686;2023-01-26T07:21:02;96546.31;;;-0.77;72.61
57594;BME280;43423;46.510;6.686;2023-01-26T07:23:29;96534.13;;;-0.96;73.10
57594;BME280;43423;46.510;6.686;2023-01-26T07:25:55;96536.81;;;-0.93;72.67
57594;BME280;43423;46.510;6.686;2023-01-26T07:28:20;96539.91;;;-0.94;72.40
57594;BME280;43423;46.510;6.686;2023-01-26T07:30:46;96551.97;;;-1.06;72.86
57594;BME280;43423;46.510;6.686;2023-01-26T07:33:12;96550.09;;;-1.13;73.13
57594;BME280;43423;46.510;6.686;2023-01-26T07:35:37;96544.00;;;-1.20;73.20
57594;BME280;43423;46.510;6.686;2023-01-26T07:38:03;96535.06;;;-1.10;73.25
57594;BME280;43423;46.510;6.686;2023-01-26T07:40:29;96531.53;;;-1.07;73.64
57594;BME280;43423;46.510;6.686;2023-01-26T07:42:55;96536.94;;;-1.07;73.49
57594;BME280;43423;46.510;6.686;2023-01-26T07:45:21;96530.44;;;-1.13;73.21
57594;BME280;43423;46.510;6.686;2023-01-26T07:47:47;96543.16;;;-1.10;73.19
57594;BME280;43423;46.510;6.686;2023-01-26T07:50:13;96553.13;;;-1.07;73.29
57594;BME280;43423;46.510;6.686;2023-01-26T07:52:39;96540.81;;;-1.08;73.02
57594;BME280;43423;46.510;6.686;2023-01-26T07:55:05;96539.28;;;-1.09;72.94
57594;BME280;43423;46.510;6.686;2023-01-26T07:57:30;96542.34;;;-1.07;73.28
57594;BME280;43423;46.510;6.686;2023-01-26T07:59:58;96536.44;;;-0.95;72.55
57594;BME280;43423;46.510;6.686;2023-01-26T08:02:24;96539.38;;;-0.78;72.41
57594;BME280;43423;46.510;6.686;2023-01-26T08:04:49;96533.88;;;-0.71;72.84
57594;BME280;43423;46.510;6.686;2023-01-26T08:07:15;96533.53;;;-0.73;71.94
57594;BME280;43423;46.510;6.686;2023-01-26T08:09:41;96524.63;;;-0.70;72.33
57594;BME280;43423;46.510;6.686;2023-01-26T08:12:06;96534.63;;;-0.67;72.14
57594;BME280;43423;46.510;6.686;2023-01-26T08:14:32;96535.03;;;-0.69;71.70
57594;BME280;43423;46.510;6.686;2023-01-26T08:16:57;96531.91;;;-0.67;72.07
57594;BME280;43423;46.510;6.686;2023-01-26T08:19:23;96529.97;;;-0.67;72.00
57594;BME280;43423;46.510;6.686;2023-01-26T08:21:49;96465.06;;;-1.28;72.66
57594;BME280;43423;46.510;6.686;2023-01-26T08:24:14;96540.44;;;-0.72;72.48
57594;BME280;43423;46.510;6.686;2023-01-26T08:26:40;96533.56;;;-0.77;72.63
57594;BME280;43423;46.510;6.686;2023-01-26T08:29:06;96534.47;;;-0.91;72.11
57594;BME280;43423;46.510;6.686;2023-01-26T08:31:32;96540.22;;;-0.85;72.38
57594;BME280;43423;46.510;6.686;2023-01-26T08:33:58;96539.00;;;-0.80;72.43
57594;BME280;43423;46.510;6.686;2023-01-26T08:36:23;96538.13;;;-0.70;71.81
57594;BME280;43423;46.510;6.686;2023-01-26T08:38:50;96542.50;;;-0.83;72.18
57594;BME280;43423;46.510;6.686;2023-01-26T08:41:16;96543.56;;;-0.74;72.03
57594;BME280;43423;46.510;6.686;2023-01-26T08:43:42;96538.97;;;-0.77;71.98
57594;BME280;43423;46.510;6.686;2023-01-26T08:46:08;96542.72;;;-0.67;72.17
57594;BME280;43423;46.510;6.686;2023-01-26T08:48:34;96535.72;;;-0.61;72.21
57594;BME280;43423;46.510;6.686;2023-01-26T08:51:01;96541.75;;;-0.50;71.74
57594;BME280;43423;46.510;6.686;2023-01-26T08:53:29;96538.72;;;-0.56;71.75
57594;BME280;43423;46.510;6.686;2023-01-26T08:55:55;96544.81;;;-0.48;72.02
57594;BME280;43423;46.510;6.686;2023-01-26T08:58:21;96545.59;;;-0.47;71.74
57594;BME280;43423;46.510;6.686;2023-01-26T09:00:46;96542.03;;;-0.41;71.10
57594;BME280;43423;46.510;6.686;2023-01-26T09:03:12;96538.84;;;-0.32;71.30
57594;BME280;43423;46.510;6.686;2023-01-26T09:05:39;96539.97;;;-0.30;71.45
57594;BME280;43423;46.510;6.686;2023-01-26T09:08:07;96542.19;;;-0.21;71.73
57594;BME280;43423;46.510;6.686;2023-01-26T09:10:33;96545.97;;;-0.15;70.81
57594;BME280;43423;46.510;6.686;2023-01-26T09:12:59;96539.75;;;-0.12;71.09
57594;BME280;43423;46.510;6.686;2023-01-26T09:15:26;96541.44;;;-0.21;70.06
57594;BME280;43423;46.510;6.686;2023-01-26T09:17:52;96543.38;;;-0.22;70.56
57594;BME280;43423;46.510;6.686;2023-01-26T09:20:18;96532.16;;;-0.24;71.05
57594;BME280;43423;46.510;6.686;2023-01-26T09:22:44;96538.41;;;-0.27;71.20
57594;BME280;43423;46.510;6.686;2023-01-26T09:25:10;96543.31;;;-0.18;71.10
57594;BME280;43423;46.510;6.686;2023-01-26T09:27:36;96542.91;;;-0.17;70.46
57594;BME280;43423;46.510;6.686;2023-01-26T09:30:03;96545.50;;;-0.10;70.20
57594;BME280;43423;46.510;6.686;2023-01-26T09:32:29;96546.59;;;-0.04;70.93
57594;BME280;43423;46.510;6.686;2023-01-26T09:34:54;96545.00;;;-0.01;70.35
57594;BME280;43423;46.510;6.686;2023-01-26T09:37:20;96545.84;;;-0.04;70.74
57594;BME280;43423;46.510;6.686;2023-01-26T09:39:46;96542.03;;;-0.10;70.52
57594;BME280;43423;46.510;6.686;2023-01-26T09:45:36;96538.94;;;-0.09;70.15
57594;BME280;43423;46.510;6.686;2023-01-26T09:48:25;96542.03;;;-0.10;69.58
57594;BME280;43423;46.510;6.686;2023-01-26T09:51:17;96542.72;;;-0.03;70.05
57594;BME280;43423;46.510;6.686;2023-01-26T09:53:46;96540.88;;;-0.09;69.79
57594;BME280;43423;46.510;6.686;2023-01-26T09:56:18;96544.03;;;-0.14;69.96
57594;BME280;43423;46.510;6.686;2023-01-26T10:02:16;96534.09;;;-0.24;70.06
57594;BME280;43423;46.510;6.686;2023-01-26T10:04:46;96546.28;;;-0.09;70.34
57594;BME280;43423;46.510;6.686;2023-01-26T10:07:14;96545.09;;;-0.08;69.37
57594;BME280;43423;46.510;6.686;2023-01-26T10:09:43;96539.75;;;-0.12;70.17
57594;BME280;43423;46.510;6.686;2023-01-26T10:12:23;96538.91;;;-0.05;70.64
57594;BME280;43423;46.510;6.686;2023-01-26T10:15:02;96542.13;;;-0.17;69.80
57594;BME280;43423;46.510;6.686;2023-01-26T10:17:40;96537.47;;;-0.13;70.32
57594;BME280;43423;46.510;6.686;2023-01-26T10:20:32;96531.50;;;-0.01;70.88
57594;BME280;43423;46.510;6.686;2023-01-26T10:23:00;96539.59;;;-0.01;69.66
57594;BME280;43423;46.510;6.686;2023-01-26T10:25:37;96537.56;;;0.07;69.44
57594;BME280;43423;46.510;6.686;2023-01-26T10:28:16;96543.03;;;0.03;69.25
57594;BME280;43423;46.510;6.686;2023-01-26T10:30:44;96534.97;;;-0.01;69.87
57594;BME280;43423;46.510;6.686;2023-01-26T10:33:19;96532.22;;;0.03;69.62
57594;BME280;43423;46.510;6.686;2023-01-26T10:35:46;96529.53;;;0.03;68.90
57594;BME280;43423;46.510;6.686;2023-01-26T10:41:21;96522.78;;;-0.12;69.61
57594;BME280;43423;46.510;6.686;2023-01-26T10:44:02;96526.47;;;0.01;69.47
57594;BME280;43423;46.510;6.686;2023-01-26T10:46:40;96531.88;;;0.01;69.69
57594;BME280;43423;46.510;6.686;2023-01-26T10:51:37;96525.38;;;-0.05;69.53
57594;BME280;43423;46.510;6.686;2023-01-26T10:54:24;96519.66;;;-0.11;70.06
57594;BME280;43423;46.510;6.686;2023-01-26T10:56:51;96524.28;;;-0.08;69.99
57594;BME280;43423;46.510;6.686;2023-01-26T11:01:54;96517.19;;;0.02;70.00
57594;BME280;43423;46.510;6.686;2023-01-26T11:04:20;96520.97;;;0.08;70.41
57594;BME280;43423;46.510;6.686;2023-01-26T11:06:46;96518.50;;;0.17;69.70
57594;BME280;43423;46.510;6.686;2023-01-26T11:09:26;96505.00;;;0.17;70.02
57594;BME280;43423;46.510;6.686;2023-01-26T11:12:03;96521.50;;;0.23;70.28
57594;BME280;43423;46.510;6.686;2023-01-26T11:14:31;96509.34;;;0.08;69.97
57594;BME280;43423;46.510;6.686;2023-01-26T11:17:21;96504.44;;;0.03;69.83
57594;BME280;43423;46.510;6.686;2023-01-26T11:19:59;96504.78;;;0.05;70.23
57594;BME280;43423;46.510;6.686;2023-01-26T11:25:25;96493.66;;;-0.01;71.21
57594;BME280;43423;46.510;6.686;2023-01-26T11:33:58;96497.44;;;0.05;70.92
57594;BME280;43423;46.510;6.686;2023-01-26T11:36:44;96495.66;;;-0.05;70.76
57594;BME280;43423;46.510;6.686;2023-01-26T11:39:29;96489.31;;;0.05;71.05
57594;BME280;43423;46.510;6.686;2023-01-26T11:42:02;96490.03;;;0.09;70.43
57594;BME280;43423;46.510;6.686;2023-01-26T11:56:17;96484.25;;;0.07;70.75
57594;BME280;43423;46.510;6.686;2023-01-26T11:58:56;96473.63;;;-0.04;70.78
57594;BME280;43423;46.510;6.686;2023-01-26T12:01:33;96473.81;;;0.09;70.75
57594;BME280;43423;46.510;6.686;2023-01-26T12:03:59;96474.19;;;0.11;70.78
57594;BME280;43423;46.510;6.686;2023-01-26T12:06:42;96473.34;;;0.14;70.82
57594;BME280;43423;46.510;6.686;2023-01-26T12:09:17;96454.19;;;0.05;70.46
57594;BME280;43423;46.510;6.686;2023-01-26T12:11:55;96456.00;;;0.12;70.91
57594;BME280;43423;46.510;6.686;2023-01-26T12:14:30;96459.47;;;0.12;70.29
57594;BME280;43423;46.510;6.686;2023-01-26T12:20:11;96446.50;;;-0.23;72.47
57594;BME280;43423;46.510;6.686;2023-01-26T12:25:41;96446.78;;;-0.18;72.42
57594;BME280;43423;46.510;6.686;2023-01-26T12:28:26;96436.28;;;-0.12;72.38
57594;BME280;43423;46.510;6.686;2023-01-26T12:33:50;96451.13;;;0.03;71.22
57594;BME280;43423;46.510;6.686;2023-01-26T12:39:15;96445.91;;;0.16;71.49
57594;BME280;43423;46.510;6.686;2023-01-26T12:44:43;96441.13;;;0.23;71.31
57594;BME280;43423;46.510;6.686;2023-01-26T12:47:22;96434.94;;;0.26;71.26
57594;BME280;43423;46.510;6.686;2023-01-26T12:49:55;96426.47;;;0.24;70.19
57594;BME280;43423;46.510;6.686;2023-01-26T12:57:57;96428.56;;;0.37;70.39
57594;BME280;43423;46.510;6.686;2023-01-26T13:00:28;96427.22;;;0.25;69.73
57594;BME280;43423;46.510;6.686;2023-01-26T13:02:59;96425.72;;;0.24;70.66
57594;BME280;43423;46.510;6.686;2023-01-26T13:05:32;96423.75;;;0.24;70.81
57594;BME280;43423;46.510;6.686;2023-01-26T13:09:03;96418.81;;;0.19;70.98
57594;BME280;43423;46.510;6.686;2023-01-26T13:11:08;96408.75;;;0.20;69.72
57594;BME280;43423;46.510;6.686;2023-01-26T13:13:51;96403.06;;;0.14;70.74
57594;BME280;43423;46.510;6.686;2023-01-26T13:21:45;96414.81;;;0.27;69.66
57594;BME280;43423;46.510;6.686;2023-01-26T13:26:58;96395.44;;;0.33;70.39
57594;BME280;43423;46.510;6.686;2023-01-26T13:32:49;96406.69;;;0.04;69.98
57594;BME280;43423;46.510;6.686;2023-01-26T13:34:44;96404.22;;;0.13;70.75
57594;BME280;43423;46.510;6.686;2023-01-26T13:37:15;96399.53;;;0.17;71.61
57594;BME280;43423;46.510;6.686;2023-01-26T13:39:46;96399.88;;;0.19;70.94
57594;BME280;43423;46.510;6.686;2023-01-26T13:42:15;96399.00;;;0.26;70.90
57594;BME280;43423;46.510;6.686;2023-01-26T13:44:48;96398.47;;;0.35;70.49
57594;BME280;43423;46.510;6.686;2023-01-26T13:47:23;96400.72;;;0.40;71.03
57594;BME280;43423;46.510;6.686;2023-01-26T13:49:51;96396.84;;;0.41;70.23
57594;BME280;43423;46.510;6.686;2023-01-26T13:52:24;96401.41;;;0.44;70.28
57594;BME280;43423;46.510;6.686;2023-01-26T13:54:52;96396.00;;;0.44;70.21
57594;BME280;43423;46.510;6.686;2023-01-26T13:57:23;96391.44;;;0.41;70.29
57594;BME280;43423;46.510;6.686;2023-01-26T13:59:51;96401.88;;;0.39;69.68
57594;BME280;43423;46.510;6.686;2023-01-26T14:02:29;96388.75;;;0.37;69.59
57594;BME280;43423;46.510;6.686;2023-01-26T14:04:56;96390.78;;;0.33;69.24
57594;BME280;43423;46.510;6.686;2023-01-26T14:07:30;96389.31;;;0.28;70.00
57594;BME280;43423;46.510;6.686;2023-01-26T14:09:58;96396.06;;;0.40;69.84
57594;BME280;43423;46.510;6.686;2023-01-26T14:12:40;96400.56;;;0.47;69.80
57594;BME280;43423;46.510;6.686;2023-01-26T14:15:16;96401.28;;;0.51;69.80
57594;BME280;43423;46.510;6.686;2023-01-26T14:17:49;96383.59;;;0.46;70.12
57594;BME280;43423;46.510;6.686;2023-01-26T14:20:32;96396.94;;;0.34;69.48
57594;BME280;43423;46.510;6.686;2023-01-26T14:25:56;96391.78;;;0.19;70.23
57594;BME280;43423;46.510;6.686;2023-01-26T14:28:27;96394.72;;;0.28;70.55
57594;BME280;43423;46.510;6.686;2023-01-26T14:30:59;96392.13;;;0.21;69.74
57594;BME280;43423;46.510;6.686;2023-01-26T14:33:26;96387.06;;;0.23;70.52
57594;BME280;43423;46.510;6.686;2023-01-26T14:35:59;96392.31;;;0.34;70.66